createdAt,value
2019-05-10T00:01:52.765Z,12.76
2019-05-10T00:04:48.222Z,12.70
2019-05-10T00:07:40.476Z,12.66
2019-05-10T00:10:13.265Z,12.64
2019-05-10T00:13:02.530Z,12.64
2019-05-10T00:15:37.038Z,12.66
2019-05-10T00:18:09.332Z,12.64
2019-05-10T00:20:41.695Z,12.61
2019-05-10T00:23:13.771Z,12.61
2019-05-10T00:25:45.873Z,12.62
2019-05-10T00:28:17.462Z,12.62
2019-05-10T00:30:49.795Z,12.61
2019-05-10T00:33:21.955Z,12.60
2019-05-10T00:35:54.331Z,12.57
2019-05-10T00:38:29.272Z,12.59
2019-05-10T00:41:01.306Z,12.59
2019-05-10T00:43:33.254Z,12.62
2019-05-10T00:46:06.322Z,12.65
2019-05-10T00:48:37.634Z,12.70
2019-05-10T00:51:09.722Z,12.68
2019-05-10T00:53:40.979Z,12.69
2019-05-10T00:56:12.878Z,12.62
2019-05-10T00:58:44.901Z,12.55
2019-05-10T01:01:21.192Z,12.50
2019-05-10T01:03:54.974Z,12.47
2019-05-10T01:06:27.857Z,12.39
2019-05-10T01:09:01.010Z,12.36
2019-05-10T01:11:35.946Z,12.34
2019-05-10T01:14:07.974Z,12.31
2019-05-10T01:16:45.097Z,12.27
2019-05-10T01:19:17.223Z,12.23
2019-05-10T01:21:50.222Z,12.19
2019-05-10T01:24:23.733Z,12.12
2019-05-10T01:26:55.626Z,12.08
2019-05-10T01:29:27.413Z,12.06
2019-05-10T01:31:59.464Z,12.04
2019-05-10T01:34:31.411Z,12.01
2019-05-10T01:37:03.301Z,12.01
2019-05-10T01:39:34.492Z,11.99
2019-05-10T01:42:06.462Z,11.98
2019-05-10T01:44:38.452Z,11.98
2019-05-10T01:47:10.377Z,11.97
2019-05-10T01:49:42.246Z,11.98
2019-05-10T01:52:13.466Z,11.98
2019-05-10T01:54:45.334Z,11.99
2019-05-10T01:57:17.263Z,12.00
2019-05-10T01:59:49.173Z,12.01
2019-05-10T02:02:21.137Z,11.98
2019-05-10T02:04:54.284Z,11.99
2019-05-10T02:07:26.238Z,11.97
2019-05-10T02:09:58.296Z,11.97
2019-05-10T02:12:29.894Z,12.01
2019-05-10T02:15:01.859Z,12.09
2019-05-10T02:17:35.416Z,12.13
2019-05-10T02:20:07.577Z,12.15
2019-05-10T02:22:38.957Z,12.15
2019-05-10T02:25:10.200Z,12.15
2019-05-10T02:27:41.974Z,12.16
2019-05-10T02:30:14.363Z,12.15
2019-05-10T02:32:45.687Z,12.12
2019-05-10T02:35:17.475Z,12.06
2019-05-10T02:37:53.070Z,12.06
2019-05-10T02:40:25.014Z,12.00
2019-05-10T02:42:57.164Z,11.95
2019-05-10T02:45:29.088Z,11.87
2019-05-10T02:48:03.675Z,11.83
2019-05-10T02:50:35.747Z,11.76
2019-05-10T02:53:07.156Z,11.69
2019-05-10T02:55:39.273Z,11.64
2019-05-10T02:58:15.147Z,11.59
2019-05-10T03:00:49.590Z,11.53
2019-05-10T03:03:26.426Z,11.45
2019-05-10T03:05:57.663Z,11.40
2019-05-10T03:08:32.877Z,11.35
2019-05-10T03:11:05.002Z,11.34
2019-05-10T03:13:36.759Z,11.34
2019-05-10T03:16:08.629Z,11.35
2019-05-10T03:18:43.358Z,11.35
2019-05-10T03:21:19.577Z,11.39
2019-05-10T03:23:51.026Z,11.42
2019-05-10T03:26:22.203Z,11.45
2019-05-10T03:28:53.966Z,11.50
2019-05-10T03:31:26.010Z,11.54
2019-05-10T03:33:58.108Z,11.54
2019-05-10T03:36:30.090Z,11.58
2019-05-10T03:39:01.323Z,11.63
2019-05-10T03:41:34.772Z,11.67
2019-05-10T03:44:07.688Z,11.70
2019-05-10T03:46:39.555Z,11.73
2019-05-10T03:49:10.791Z,11.77
2019-05-10T03:51:42.667Z,11.83
2019-05-10T03:54:14.011Z,11.88
2019-05-10T03:56:45.748Z,11.96
2019-05-10T03:59:19.789Z,12.01
2019-05-10T04:01:51.596Z,12.08
2019-05-10T04:04:23.718Z,12.13
2019-05-10T04:06:54.926Z,12.21
2019-05-10T04:09:26.110Z,12.27
2019-05-10T04:11:58.001Z,12.33
2019-05-10T04:14:29.942Z,12.38
2019-05-10T04:17:01.799Z,12.40
2019-05-10T04:19:33.770Z,12.37
2019-05-10T04:22:05.590Z,12.35
2019-05-10T04:24:37.610Z,12.32
2019-05-10T04:27:09.725Z,12.30
2019-05-10T04:29:41.625Z,12.25
2019-05-10T04:32:13.538Z,12.21
2019-05-10T04:34:45.463Z,12.25
2019-05-10T04:37:17.277Z,12.28
2019-05-10T04:39:49.187Z,12.36
2019-05-10T04:42:21.025Z,12.35
2019-05-10T04:44:54.047Z,12.41
2019-05-10T04:47:26.141Z,12.44
2019-05-10T04:49:58.072Z,12.50
2019-05-10T04:52:29.955Z,12.54
2019-05-10T04:55:02.872Z,12.58
2019-05-10T04:57:49.254Z,12.60
2019-05-10T05:00:08.931Z,12.65
2019-05-10T05:02:40.937Z,12.68
2019-05-10T05:05:13.001Z,12.74
2019-05-10T05:07:44.912Z,12.86
2019-05-10T05:10:17.616Z,12.96
2019-05-10T05:12:49.983Z,13.07
2019-05-10T05:15:21.945Z,13.25
2019-05-10T05:17:53.802Z,13.28
2019-05-10T05:20:25.050Z,13.33
2019-05-10T05:22:57.048Z,13.34
2019-05-10T05:25:28.963Z,13.40
2019-05-10T05:28:08.024Z,13.46
2019-05-10T05:30:33.680Z,13.52
2019-05-10T05:33:05.632Z,13.49
2019-05-10T05:35:37.492Z,13.46
2019-05-10T05:38:09.349Z,13.42
2019-05-10T05:40:41.253Z,13.25
2019-05-10T05:43:13.139Z,13.26
2019-05-10T05:45:45.390Z,13.23
2019-05-10T05:48:21.384Z,13.37
2019-05-10T05:50:50.304Z,13.54
2019-05-10T05:53:22.496Z,13.70
2019-05-10T05:55:54.672Z,13.66
2019-05-10T05:58:27.201Z,13.69
2019-05-10T06:00:59.268Z,13.81
2019-05-10T06:03:31.173Z,13.93
2019-05-10T06:06:15.476Z,14.12
2019-05-10T06:08:37.552Z,14.23
2019-05-10T06:11:09.493Z,14.02
2019-05-10T06:13:41.365Z,14.16
2019-05-10T06:16:14.637Z,14.39
2019-05-10T06:18:47.410Z,14.52
2019-05-10T06:21:25.257Z,14.38
2019-05-10T06:23:53.280Z,14.27
2019-05-10T06:26:28.562Z,14.25
2019-05-10T06:29:03.357Z,13.90
2019-05-10T06:31:30.890Z,13.62
2019-05-10T06:34:02.756Z,13.49
2019-05-10T06:36:34.683Z,13.36
2019-05-10T06:39:08.513Z,13.35
2019-05-10T06:41:40.375Z,13.36
2019-05-10T06:44:12.434Z,13.52
2019-05-10T06:46:43.715Z,13.66
2019-05-10T06:49:15.515Z,13.67
2019-05-10T06:51:49.064Z,13.91
2019-05-10T06:54:20.987Z,13.99
2019-05-10T06:56:52.828Z,14.28
2019-05-10T06:59:25.063Z,14.56
2019-05-10T07:01:57.579Z,14.79
2019-05-10T07:04:34.513Z,14.96
2019-05-10T07:07:03.288Z,15.25
2019-05-10T07:10:00.456Z,15.58
2019-05-10T07:12:09.291Z,15.49
2019-05-10T07:14:45.833Z,15.98
2019-05-10T07:17:15.237Z,16.39
2019-05-10T07:19:53.589Z,16.75
2019-05-10T07:22:21.596Z,17.07
2019-05-10T07:24:57.071Z,17.00
2019-05-10T07:27:27.953Z,16.98
2019-05-10T07:29:59.813Z,17.28
2019-05-10T07:32:31.067Z,17.46
2019-05-10T07:35:02.932Z,17.38
2019-05-10T07:37:34.860Z,17.05
2019-05-10T07:40:07.725Z,16.75
2019-05-10T07:42:45.173Z,16.36
2019-05-10T07:45:13.268Z,16.05
2019-05-10T07:47:45.309Z,16.02
2019-05-10T07:50:16.559Z,15.67
2019-05-10T07:52:48.472Z,16.30
2019-05-10T07:55:28.044Z,16.66
2019-05-10T07:57:59.189Z,16.28
2019-05-10T08:00:27.439Z,16.47
2019-05-10T08:03:11.858Z,16.61
2019-05-10T08:05:32.178Z,16.53
2019-05-10T08:08:04.066Z,16.73
2019-05-10T08:10:35.986Z,16.47
2019-05-10T08:13:08.493Z,16.57
2019-05-10T08:15:42.476Z,16.75
2019-05-10T08:18:15.335Z,16.78
2019-05-10T08:20:53.762Z,16.97
2019-05-10T08:23:23.753Z,17.20
2019-05-10T08:25:55.303Z,17.02
2019-05-10T08:28:28.086Z,16.45
2019-05-10T08:31:02.446Z,16.39
2019-05-10T08:33:33.839Z,16.67
2019-05-10T08:36:05.742Z,16.73
2019-05-10T08:38:39.840Z,16.50
2019-05-10T08:41:18.365Z,16.62
2019-05-10T08:43:52.638Z,17.08
2019-05-10T08:46:37.338Z,17.17
2019-05-10T08:49:01.913Z,17.67
2019-05-10T08:51:44.165Z,18.09
2019-05-10T08:54:15.795Z,18.33
2019-05-10T08:57:00.248Z,18.53
2019-05-10T08:59:26.773Z,19.26
2019-05-10T09:01:58.394Z,19.73
2019-05-10T09:04:42.222Z,19.86
2019-05-10T09:07:08.859Z,19.95
2019-05-10T09:09:49.758Z,20.40
2019-05-10T09:12:18.024Z,19.77
2019-05-10T09:14:57.432Z,20.19
2019-05-10T09:17:28.356Z,20.43
2019-05-10T09:20:02.820Z,19.86
2019-05-10T09:22:38.664Z,20.25
2019-05-10T09:25:20.094Z,20.69
2019-05-10T09:27:53.079Z,20.94
2019-05-10T09:30:35.808Z,21.37
2019-05-10T09:33:10.452Z,20.94
2019-05-10T09:35:47.127Z,20.98
2019-05-10T09:38:22.206Z,20.57
2019-05-10T09:40:56.320Z,20.54
2019-05-10T09:43:27.958Z,20.59
2019-05-10T09:45:59.806Z,20.47
2019-05-10T09:48:33.274Z,20.61
2019-05-10T09:51:07.961Z,20.96
2019-05-10T09:53:39.929Z,20.63
2019-05-10T09:56:11.794Z,20.07
2019-05-10T09:58:43.686Z,20.33
2019-05-10T10:01:21.151Z,20.88
2019-05-10T10:03:49.174Z,20.38
2019-05-10T10:06:21.074Z,19.73
2019-05-10T10:08:53.528Z,19.53
2019-05-10T10:11:27.846Z,20.09
2019-05-10T10:14:02.026Z,20.33
2019-05-10T10:16:32.876Z,20.50
2019-05-10T10:19:07.031Z,19.84
2019-05-10T10:21:38.929Z,19.27
2019-05-10T10:24:15.507Z,19.07
2019-05-10T10:26:44.775Z,18.94
2019-05-10T10:29:17.272Z,19.47
2019-05-10T10:31:55.191Z,19.72
2019-05-10T10:34:23.116Z,19.47
2019-05-10T10:36:55.037Z,19.58
2019-05-10T10:39:27.786Z,19.61
2019-05-10T10:42:02.507Z,19.81
2019-05-10T10:44:33.296Z,19.69
2019-05-10T10:47:04.600Z,19.94
2019-05-10T10:49:37.803Z,19.66
2019-05-10T10:52:11.186Z,19.70
2019-05-10T10:54:43.338Z,19.31
2019-05-10T10:57:14.534Z,18.70
2019-05-10T10:59:47.450Z,18.59
2019-05-10T11:02:34.760Z,18.38
2019-05-10T11:04:53.050Z,18.07
2019-05-10T11:07:24.953Z,18.13
2019-05-10T11:10:13.350Z,18.43
2019-05-10T11:12:30.793Z,18.38
2019-05-10T11:15:02.690Z,18.77
2019-05-10T11:17:37.041Z,18.73
2019-05-10T11:20:11.302Z,18.18
2019-05-10T11:22:49.626Z,18.79
2019-05-10T11:25:21.171Z,19.15
2019-05-10T11:27:58.624Z,19.33
2019-05-10T11:30:28.785Z,19.61
2019-05-10T11:33:03.937Z,19.43
2019-05-10T11:35:35.816Z,20.25
2019-05-10T11:38:13.813Z,20.18
2019-05-10T11:40:43.281Z,20.49
2019-05-10T11:43:17.299Z,20.75
2019-05-10T11:45:48.285Z,19.80
2019-05-10T11:48:21.598Z,20.00
2019-05-10T11:50:56.065Z,20.67
2019-05-10T11:53:28.051Z,21.38
2019-05-10T11:56:02.007Z,21.89
2019-05-10T11:58:37.472Z,21.04
2019-05-10T12:01:14.794Z,20.49
2019-05-10T12:03:42.550Z,19.87
2019-05-10T12:06:14.743Z,19.39
2019-05-10T12:08:56.821Z,19.64
2019-05-10T12:11:32.484Z,19.39
2019-05-10T12:13:58.135Z,19.42
2019-05-10T12:16:33.343Z,19.39
2019-05-10T12:19:19.601Z,19.21
2019-05-10T12:21:40.753Z,18.64
2019-05-10T12:24:31.366Z,18.30
2019-05-10T12:27:12.617Z,18.31
2019-05-10T12:29:21.281Z,18.75
2019-05-10T12:31:56.870Z,19.49
2019-05-10T12:34:26.469Z,19.53
2019-05-10T12:37:03.785Z,19.53
2019-05-10T12:39:31.173Z,19.43
2019-05-10T12:42:02.407Z,19.37
2019-05-10T12:44:38.944Z,19.33
2019-05-10T12:47:07.711Z,19.32
2019-05-10T12:49:41.047Z,19.58
2019-05-10T12:52:14.028Z,19.73
2019-05-10T12:54:46.737Z,19.62
2019-05-10T12:57:18.547Z,19.86
2019-05-10T12:59:50.598Z,20.37
2019-05-10T13:02:22.461Z,20.49
2019-05-10T13:04:54.438Z,21.04
2019-05-10T13:07:26.291Z,21.20
2019-05-10T13:10:03.444Z,21.39
2019-05-10T13:12:31.105Z,21.50
2019-05-10T13:15:02.913Z,21.08
2019-05-10T13:17:34.945Z,21.24
2019-05-10T13:20:07.844Z,21.18
2019-05-10T13:22:39.606Z,20.68
2019-05-10T13:25:11.862Z,20.36
2019-05-10T13:27:43.753Z,20.27
2019-05-10T13:30:16.924Z,19.64
2019-05-10T13:32:52.896Z,19.33
2019-05-10T13:35:22.481Z,19.62
2019-05-10T13:37:56.994Z,19.95
2019-05-10T13:40:28.055Z,19.34
2019-05-10T13:42:59.858Z,19.65
2019-05-10T13:45:37.460Z,19.72
2019-05-10T13:48:05.426Z,19.72
2019-05-10T13:50:37.269Z,20.01
2019-05-10T13:53:19.927Z,20.29
2019-05-10T13:55:42.245Z,20.52
2019-05-10T13:58:14.088Z,20.38
2019-05-10T14:00:46.460Z,20.31
2019-05-10T14:03:18.502Z,19.77
2019-05-10T14:05:49.748Z,19.28
2019-05-10T14:08:21.745Z,19.29
2019-05-10T14:10:55.961Z,19.11
2019-05-10T14:13:26.728Z,19.26
2019-05-10T14:15:58.752Z,19.46
2019-05-10T14:18:30.784Z,19.50
2019-05-10T14:21:02.792Z,19.69
2019-05-10T14:23:37.203Z,20.34
2019-05-10T14:26:15.464Z,20.60
2019-05-10T14:28:42.663Z,20.40
2019-05-10T14:31:14.669Z,20.26
2019-05-10T14:33:49.572Z,20.40
2019-05-10T14:36:20.218Z,20.80
2019-05-10T14:38:53.701Z,21.14
2019-05-10T14:41:24.344Z,21.02
2019-05-10T14:43:56.195Z,20.74
2019-05-10T14:46:28.148Z,20.45
2019-05-10T14:52:48.984Z,19.70
2019-05-10T14:55:20.906Z,19.20
2019-05-10T14:57:52.155Z,19.11
2019-05-10T15:00:24.182Z,19.05
2019-05-10T15:03:01.957Z,19.10
2019-05-10T15:05:30.793Z,19.20
2019-05-10T15:08:03.555Z,19.46
2019-05-10T15:10:39.658Z,19.76
2019-05-10T15:13:08.088Z,19.78
2019-05-10T15:15:39.463Z,19.92
2019-05-10T15:18:10.697Z,20.60
2019-05-10T15:20:42.693Z,20.62
2019-05-10T15:23:14.682Z,21.21
2019-05-10T15:25:56.566Z,20.90
2019-05-10T15:28:20.700Z,20.72
2019-05-10T15:30:53.660Z,20.19
2019-05-10T15:33:25.205Z,19.89
2019-05-10T15:35:56.496Z,19.42
2019-05-10T15:38:28.325Z,19.26
2019-05-10T15:41:00.322Z,19.23
2019-05-10T15:50:49.901Z,18.75
2019-05-10T16:01:08.363Z,19.74
2019-05-10T16:03:40.899Z,19.54
2019-05-10T16:06:12.377Z,19.61
2019-05-10T16:08:43.827Z,19.53
2019-05-10T16:11:19.156Z,20.05
2019-05-10T16:13:49.070Z,19.72
2019-05-10T16:16:21.331Z,19.17
2019-05-10T16:18:53.579Z,18.52
2019-05-10T16:21:25.013Z,18.56
2019-05-10T16:23:56.611Z,18.66
2019-05-10T16:26:31.985Z,18.68
2019-05-10T16:29:04.482Z,18.59
2019-05-10T16:31:36.727Z,18.56
2019-05-10T16:34:08.293Z,18.69
2019-05-10T16:36:40.284Z,18.82
2019-05-10T16:39:12.752Z,18.74
2019-05-10T16:41:45.082Z,18.47
2019-05-10T16:44:16.422Z,18.30
2019-05-10T16:46:48.412Z,18.35
2019-05-10T16:49:20.257Z,18.48
2019-05-10T16:51:52.799Z,18.46
2019-05-10T16:54:27.068Z,18.60
2019-05-10T16:57:00.093Z,18.87
2019-05-10T16:59:31.566Z,19.05
2019-05-10T17:02:06.504Z,19.29
2019-05-10T17:04:39.827Z,19.44
2019-05-10T17:07:18.426Z,19.66
2019-05-10T17:09:49.596Z,19.82
2019-05-10T17:12:22.092Z,19.94
2019-05-10T17:14:56.256Z,19.33
2019-05-10T17:17:31.228Z,19.32
2019-05-10T17:20:01.493Z,19.14
2019-05-10T17:22:33.456Z,18.91
2019-05-10T17:25:05.796Z,18.82
2019-05-10T17:27:38.496Z,18.56
2019-05-10T17:30:11.150Z,18.15
2019-05-10T17:32:43.386Z,18.12
2019-05-10T17:35:14.656Z,18.21
2019-05-10T17:37:46.122Z,18.09
2019-05-10T17:40:17.726Z,18.28
2019-05-10T17:42:51.708Z,18.55
2019-05-10T17:45:23.489Z,18.66
2019-05-10T17:47:54.722Z,18.53
2019-05-10T17:50:26.927Z,18.72
2019-05-10T17:52:59.092Z,18.40
2019-05-10T17:55:31.139Z,18.09
2019-05-10T17:58:04.590Z,17.86
2019-05-10T18:00:36.655Z,17.80
2019-05-10T18:03:08.877Z,17.62
2019-05-10T18:05:45.879Z,17.61
2019-05-10T18:08:14.543Z,17.60
2019-05-10T18:10:46.607Z,17.30
2019-05-10T18:13:18.502Z,17.15
2019-05-10T18:15:50.802Z,16.92
2019-05-10T18:18:23.326Z,16.65
2019-05-10T18:20:55.576Z,16.21
2019-05-10T18:23:27.886Z,15.86
2019-05-10T18:26:00.410Z,15.44
2019-05-10T18:28:31.954Z,15.29
2019-05-10T18:31:04.256Z,15.15
2019-05-10T18:33:35.889Z,15.16
2019-05-10T18:36:10.937Z,15.15
2019-05-10T18:38:43.468Z,14.94
2019-05-10T18:41:19.374Z,14.85
2019-05-10T18:43:51.598Z,14.89
2019-05-10T18:46:24.686Z,14.82
2019-05-10T18:48:57.338Z,14.69
2019-05-10T18:51:29.646Z,14.56
2019-05-10T18:54:03.483Z,14.38
2019-05-10T18:56:35.050Z,14.27
2019-05-10T18:59:10.374Z,14.15
2019-05-10T19:01:42.460Z,14.03
2019-05-10T19:04:15.774Z,13.89
2019-05-10T19:06:49.903Z,13.80
2019-05-10T19:09:22.111Z,13.83
2019-05-10T19:11:54.361Z,13.87
2019-05-10T19:14:29.553Z,13.91
2019-05-10T19:17:03.756Z,13.92
2019-05-10T19:19:37.163Z,13.94
2019-05-10T19:22:09.274Z,13.95
2019-05-10T19:24:41.511Z,14.09
2019-05-10T19:27:12.890Z,14.22
2019-05-10T19:29:47.595Z,14.36
2019-05-10T19:32:18.783Z,14.34
2019-05-10T19:34:57.286Z,14.31
2019-05-10T19:37:31.494Z,14.35
2019-05-10T19:39:59.383Z,14.44
2019-05-10T19:42:32.031Z,14.44
2019-05-10T19:45:05.679Z,14.68
2019-05-10T19:47:37.071Z,14.61
2019-05-10T19:50:09.803Z,14.51
2019-05-10T19:52:41.081Z,14.35
2019-05-10T19:55:19.389Z,14.11
2019-05-10T19:57:49.437Z,13.80
2019-05-10T20:00:19.333Z,13.72
2019-05-10T20:02:51.157Z,13.75
2019-05-10T20:05:22.379Z,14.04
2019-05-10T20:07:54.187Z,13.95
2019-05-10T20:10:26.064Z,13.91
2019-05-10T20:12:57.950Z,13.82
2019-05-10T20:15:31.325Z,13.62
2019-05-10T20:18:04.841Z,13.14
2019-05-10T20:20:36.701Z,12.66
2019-05-10T20:23:10.855Z,12.23
2019-05-10T20:25:42.177Z,12.03
2019-05-10T20:28:14.229Z,11.95
2019-05-10T20:30:46.347Z,11.89
2019-05-10T20:33:17.685Z,11.89
2019-05-10T20:35:49.744Z,11.90
2019-05-10T20:38:21.777Z,11.76
2019-05-10T20:40:54.202Z,11.63
2019-05-10T20:43:25.657Z,11.54
2019-05-10T20:45:56.906Z,11.56
2019-05-10T20:48:28.814Z,11.56
2019-05-10T20:51:00.847Z,11.59
2019-05-10T20:53:32.093Z,11.51
2019-05-10T20:56:04.553Z,11.44
2019-05-10T20:58:35.849Z,11.42
2019-05-10T21:01:07.790Z,11.40
2019-05-10T21:03:39.861Z,11.45
2019-05-10T21:06:12.429Z,11.45
2019-05-10T21:09:12.321Z,11.48
2019-05-10T21:11:40.262Z,11.48
2019-05-10T21:14:17.696Z,11.47
2019-05-10T21:16:50.150Z,11.40
2019-05-10T21:19:25.809Z,11.35
2019-05-10T21:22:25.272Z,11.38
2019-05-10T21:35:20.247Z,11.20
2019-05-10T21:37:18.057Z,11.13
2019-05-10T21:40:34.111Z,11.12
2019-05-10T21:51:39.309Z,10.87
2019-05-10T21:54:13.059Z,10.77
2019-05-10T21:56:45.173Z,10.67
2019-05-10T21:59:17.124Z,10.55
2019-05-10T22:01:49.248Z,10.47
2019-05-10T22:04:23.764Z,10.39
2019-05-10T22:06:55.682Z,10.35
2019-05-10T22:09:27.828Z,10.31
2019-05-10T22:12:00.111Z,10.24
2019-05-10T22:14:31.489Z,10.20
2019-05-10T22:17:02.688Z,10.14
2019-05-10T22:19:34.654Z,10.08
2019-05-10T22:22:06.752Z,10.03
2019-05-10T22:24:38.804Z,9.96
2019-05-10T22:27:10.034Z,9.89
2019-05-10T22:29:45.706Z,9.83
2019-05-10T22:32:24.440Z,9.75
2019-05-10T22:34:50.703Z,9.68
2019-05-10T22:37:21.931Z,9.61
2019-05-10T22:39:53.831Z,9.55
2019-05-10T22:42:25.946Z,9.50
2019-05-10T22:44:57.938Z,9.44
2019-05-10T22:47:29.976Z,9.38
2019-05-10T22:50:01.352Z,9.27
2019-05-10T22:52:33.448Z,9.19
2019-05-10T22:55:05.870Z,9.17
2019-05-10T22:57:37.929Z,9.15
2019-05-10T23:00:10.710Z,9.04
